createdAt,value
2022-11-04T00:00:05.069Z,71.93603516
2022-11-04T00:01:05.898Z,71.52709961
2022-11-04T00:02:06.995Z,71.83227539
2022-11-04T00:03:07.778Z,71.21582031
2022-11-04T00:04:08.218Z,71.52709961
2022-11-04T00:05:08.980Z,71.62475586
2022-11-04T00:06:09.593Z,71.72851563
2022-11-04T00:07:10.714Z,71.0144043
2022-11-04T00:08:11.410Z,70.80688477
2022-11-04T00:09:11.982Z,70.80688477
2022-11-04T00:10:13.419Z,69.98901367
2022-11-04T00:11:44.896Z,70.29418945
2022-11-04T00:12:45.463Z,70.60546875
2022-11-04T00:13:45.948Z,70.91064453
2022-11-04T00:14:46.792Z,71.0144043
2022-11-04T00:15:47.507Z,70.80688477
2022-11-04T00:16:48.034Z,70.91064453
2022-11-04T00:17:48.681Z,70.29418945
2022-11-04T00:18:49.244Z,70.1965332
2022-11-04T00:19:49.866Z,70.39794922
2022-11-04T00:20:51.164Z,70.70922852
2022-11-04T00:21:51.967Z,71.11816406
2022-11-04T00:22:52.532Z,71.11816406
2022-11-04T00:23:53.111Z,71.21582031
2022-11-04T00:24:53.727Z,71.52709961
2022-11-04T00:25:54.535Z,71.96655273
2022-11-04T00:26:55.311Z,71.96655273
2022-11-04T00:27:55.983Z,72.27783203
2022-11-04T00:28:56.577Z,72.47924805
2022-11-04T00:29:57.887Z,72.37548828
2022-11-04T00:30:59.381Z,72.68676758
2022-11-04T00:31:59.932Z,71.86279297
2022-11-04T00:33:00.479Z,72.0703125
2022-11-04T00:34:01.008Z,72.68676758
2022-11-04T00:35:01.604Z,72.44873047
2022-11-04T00:36:02.465Z,72.27783203
2022-11-04T00:37:03.270Z,72.37548828
2022-11-04T00:38:05.194Z,72.68676758
2022-11-04T00:39:05.391Z,72.88818359
2022-11-04T00:40:06.882Z,73.19946289
2022-11-04T00:41:07.435Z,73.40087891
2022-11-04T00:42:08.740Z,73.50463867
2022-11-04T00:43:09.283Z,73.60839844
2022-11-04T00:44:09.861Z,72.78442383
2022-11-04T00:45:10.446Z,72.88818359
2022-11-04T00:46:12.411Z,73.57177734
2022-11-04T00:47:44.469Z,73.05908203
2022-11-04T00:48:45.108Z,73.1628418
2022-11-04T00:49:45.689Z,73.26660156
2022-11-04T00:50:47.289Z,73.70605469
2022-11-04T00:51:48.050Z,73.80981445
2022-11-04T00:52:48.580Z,73.91357422
2022-11-04T00:53:49.213Z,74.01733398
2022-11-04T00:54:50.018Z,73.80981445
2022-11-04T00:55:51.640Z,74.11499023
2022-11-04T00:56:52.577Z,74.32250977
2022-11-04T00:57:53.418Z,74.62768555
2022-11-04T00:58:54.872Z,74.83520508
2022-11-04T00:59:55.506Z,74.93896484
2022-11-04T01:00:56.698Z,74.93896484
2022-11-04T01:01:57.618Z,74.45678711
2022-11-04T01:02:58.319Z,74.15161133
2022-11-04T01:03:59.023Z,74.25537109
2022-11-04T01:04:59.690Z,74.15161133
2022-11-04T01:06:00.406Z,74.35913086
2022-11-04T01:07:00.962Z,74.45678711
2022-11-04T01:08:01.622Z,74.56054688
2022-11-04T01:09:02.294Z,74.45678711
2022-11-04T01:10:02.827Z,74.66430664
2022-11-04T01:11:04.178Z,74.96948242
2022-11-04T01:12:04.867Z,74.56054688
2022-11-04T01:13:06.813Z,74.87182617
2022-11-04T01:14:07.214Z,75.99487305
2022-11-04T01:15:07.873Z,75.89111328
2022-11-04T01:16:08.407Z,75.89111328
2022-11-04T01:17:09.608Z,76.61132813
2022-11-04T01:18:10.439Z,76.50756836
2022-11-04T01:19:10.727Z,75.48217773
2022-11-04T01:20:11.250Z,76.30615234
2022-11-04T01:21:12.688Z,75.24414063
2022-11-04T01:22:43.867Z,74.83520508
2022-11-04T01:23:44.580Z,75.14038086
2022-11-04T01:24:45.337Z,74.93896484
2022-11-04T01:25:45.945Z,74.62768555
2022-11-04T01:26:46.594Z,74.5300293
2022-11-04T01:27:47.090Z,74.32250977
2022-11-04T01:28:47.765Z,74.21875
2022-11-04T01:29:48.337Z,74.32250977
2022-11-04T01:30:49.844Z,74.5300293
2022-11-04T01:31:50.525Z,74.21875
2022-11-04T01:32:50.964Z,73.91357422
2022-11-04T01:33:51.505Z,74.25537109
2022-11-04T01:34:52.110Z,74.76806641
2022-11-04T01:35:52.748Z,74.35913086
2022-11-04T01:36:53.173Z,74.35913086
2022-11-04T01:37:53.621Z,74.45678711
2022-11-04T01:38:54.199Z,74.25537109
2022-11-04T01:39:55.054Z,74.45678711
2022-11-04T01:40:56.153Z,74.66430664
2022-11-04T01:41:57.672Z,74.56054688
2022-11-04T01:42:58.195Z,74.66430664
2022-11-04T01:43:58.793Z,74.87182617
2022-11-04T01:44:59.416Z,74.56054688
2022-11-04T01:45:59.951Z,74.45678711
2022-11-04T01:47:00.538Z,74.35913086
2022-11-04T01:48:01.200Z,74.56054688
2022-11-04T01:49:01.791Z,74.56054688
2022-11-04T01:50:02.731Z,74.35913086
2022-11-04T01:51:04.410Z,74.8046875
2022-11-04T01:52:05.137Z,74.8046875
2022-11-04T01:53:06.060Z,74.90234375
2022-11-04T01:54:06.303Z,74.8046875
2022-11-04T01:55:07.076Z,74.90234375
2022-11-04T01:56:07.752Z,74.59716797
2022-11-04T01:57:08.849Z,74.4934082
2022-11-04T01:58:09.915Z,74.90234375
2022-11-04T01:59:10.501Z,74.8046875
2022-11-04T02:00:11.159Z,74.90234375
2022-11-04T02:01:13.171Z,74.87182617
2022-11-04T02:02:44.299Z,74.87182617
2022-11-04T02:03:44.873Z,74.56054688
2022-11-04T02:04:45.474Z,74.25537109
2022-11-04T02:05:46.132Z,74.8046875
2022-11-04T02:06:46.842Z,74.70092773
2022-11-04T02:07:47.529Z,74.90234375
2022-11-04T02:08:48.143Z,74.90234375
2022-11-04T02:09:48.665Z,74.8046875
2022-11-04T02:10:49.906Z,75.3112793
2022-11-04T02:11:50.619Z,75.3112793
2022-11-04T02:12:51.491Z,75.3112793
2022-11-04T02:13:52.178Z,75.51879883
2022-11-04T02:14:52.729Z,75.51879883
2022-11-04T02:15:53.356Z,75.72631836
2022-11-04T02:16:53.933Z,75.62255859
2022-11-04T02:17:54.847Z,75.72631836
2022-11-04T02:18:55.558Z,75.62255859
2022-11-04T02:19:56.176Z,75.82397461
2022-11-04T02:20:57.423Z,75.72631836
2022-11-04T02:21:57.988Z,75.92773438
2022-11-04T02:22:58.785Z,75.92773438
2022-11-04T02:23:59.463Z,75.82397461
2022-11-04T02:25:00.177Z,76.03149414
2022-11-04T02:26:00.912Z,76.03149414
2022-11-04T02:27:01.544Z,76.03149414
2022-11-04T02:28:02.306Z,75.92773438
2022-11-04T02:29:02.880Z,76.03149414
2022-11-04T02:30:03.699Z,76.13525391
2022-11-04T02:31:04.867Z,76.03149414
2022-11-04T02:32:05.401Z,76.03149414
2022-11-04T02:33:06.684Z,76.33666992
2022-11-04T02:34:06.748Z,76.54418945
2022-11-04T02:35:07.278Z,76.54418945
2022-11-04T02:36:07.943Z,76.54418945
2022-11-04T02:37:08.366Z,76.953125
2022-11-04T02:38:08.904Z,76.75170898
2022-11-04T02:39:09.456Z,76.64794922
2022-11-04T02:40:10.108Z,76.64794922
2022-11-04T02:41:11.376Z,76.75170898
2022-11-04T02:42:12.178Z,77.05688477
2022-11-04T02:43:43.024Z,76.75170898
2022-11-04T02:44:43.823Z,76.75170898
2022-11-04T02:45:44.483Z,76.953125
2022-11-04T02:46:45.038Z,76.84936523
2022-11-04T02:47:46.417Z,76.75170898
2022-11-04T02:48:47.209Z,76.64794922
2022-11-04T02:49:47.842Z,76.75170898
2022-11-04T02:50:48.469Z,76.953125
2022-11-04T02:51:49.596Z,76.84936523
2022-11-04T02:52:51.423Z,76.75170898
2022-11-04T02:53:51.072Z,76.75170898
2022-11-04T02:54:51.775Z,76.64794922
2022-11-04T02:55:53.149Z,76.75170898
2022-11-04T02:56:54.369Z,76.75170898
2022-11-04T02:57:54.750Z,76.75170898
2022-11-04T02:58:55.238Z,76.75170898
2022-11-04T02:59:56.013Z,76.84936523
2022-11-04T03:00:56.605Z,76.64794922
2022-11-04T03:01:57.825Z,76.64794922
2022-11-04T03:02:58.913Z,76.75170898
2022-11-04T03:03:59.497Z,76.75170898
2022-11-04T03:05:00.305Z,76.54418945
2022-11-04T03:06:02.010Z,76.64794922
2022-11-04T03:07:02.587Z,76.88598633
2022-11-04T03:08:03.020Z,77.09350586
2022-11-04T03:09:03.671Z,76.88598633
2022-11-04T03:10:05.477Z,76.88598633
2022-11-04T03:11:06.916Z,76.88598633
2022-11-04T03:12:07.658Z,76.953125
2022-11-04T03:13:08.201Z,76.64794922
2022-11-04T03:14:08.798Z,76.88598633
2022-11-04T03:15:09.567Z,76.68457031
2022-11-04T03:16:10.102Z,76.78222656
2022-11-04T03:17:10.813Z,76.78222656
2022-11-04T03:18:11.443Z,76.64794922
2022-11-04T03:19:42.189Z,76.44042969
2022-11-04T03:20:43.036Z,76.33666992
2022-11-04T03:21:44.387Z,76.23901367
2022-11-04T03:22:45.068Z,76.58081055
2022-11-04T03:23:45.605Z,76.47705078
2022-11-04T03:24:46.260Z,76.37329102
2022-11-04T03:25:47.000Z,76.37329102
2022-11-04T03:26:47.682Z,76.37329102
2022-11-04T03:27:48.196Z,76.37329102
2022-11-04T03:28:48.643Z,76.58081055
2022-11-04T03:29:49.230Z,76.58081055
2022-11-04T03:30:49.914Z,76.58081055
2022-11-04T03:31:51.164Z,76.78222656
2022-11-04T03:32:51.810Z,76.98974609
2022-11-04T03:33:52.512Z,77.19726563
2022-11-04T03:34:53.551Z,77.19726563
2022-11-04T03:35:54.094Z,77.29492188
2022-11-04T03:36:55.917Z,77.29492188
2022-11-04T03:37:56.445Z,77.50244141
2022-11-04T03:38:56.993Z,77.60620117
2022-11-04T03:39:57.427Z,77.39868164
2022-11-04T03:40:57.854Z,77.29492188
2022-11-04T03:41:59.460Z,77.19726563
2022-11-04T03:42:59.995Z,77.09350586
2022-11-04T03:44:00.565Z,76.953125
2022-11-04T03:45:01.107Z,77.16064453
2022-11-04T03:46:01.647Z,77.16064453
2022-11-04T03:47:02.323Z,77.05688477
2022-11-04T03:48:03.257Z,77.25830078
2022-11-04T03:49:03.880Z,77.36206055
2022-11-04T03:50:04.520Z,77.46582031
2022-11-04T03:51:05.083Z,77.46582031
2022-11-04T03:52:06.213Z,77.46582031
2022-11-04T03:53:07.302Z,77.36206055
2022-11-04T03:54:07.685Z,77.46582031
2022-11-04T03:55:08.270Z,77.46582031
2022-11-04T03:56:08.876Z,77.56958008
2022-11-04T03:57:09.432Z,77.56958008
2022-11-04T03:58:10.608Z,77.46582031
2022-11-04T03:59:11.402Z,77.16064453
2022-11-04T04:00:42.456Z,77.16064453
2022-11-04T04:01:43.958Z,76.953125
2022-11-04T04:02:44.413Z,76.84936523
2022-11-04T04:03:45.341Z,77.05688477
2022-11-04T04:04:46.863Z,77.19726563
2022-11-04T04:05:47.540Z,77.29492188
2022-11-04T04:06:48.124Z,77.29492188
2022-11-04T04:07:49.681Z,77.29492188
2022-11-04T04:08:50.626Z,77.36206055
2022-11-04T04:09:51.304Z,77.46582031
2022-11-04T04:10:51.956Z,77.46582031
2022-11-04T04:11:53.409Z,77.46582031
2022-11-04T04:12:53.979Z,77.67333984
2022-11-04T04:13:54.769Z,77.77099609
2022-11-04T04:14:55.548Z,77.67333984
2022-11-04T04:15:56.297Z,77.46582031
2022-11-04T04:16:57.053Z,77.36206055
2022-11-04T04:17:57.800Z,77.42919922
2022-11-04T04:18:58.869Z,77.42919922
2022-11-04T04:19:59.086Z,77.53295898
2022-11-04T04:20:59.859Z,77.42919922
2022-11-04T04:22:01.146Z,77.2277832
2022-11-04T04:23:01.855Z,77.32543945
2022-11-04T04:24:02.310Z,77.32543945
2022-11-04T04:25:02.699Z,77.12402344
2022-11-04T04:26:03.207Z,76.91650391
2022-11-04T04:27:03.837Z,76.71508789
2022-11-04T04:28:04.420Z,76.61132813
2022-11-04T04:29:05.046Z,76.61132813
2022-11-04T04:30:05.561Z,76.50756836
2022-11-04T04:31:06.130Z,76.50756836
2022-11-04T04:32:07.683Z,76.50756836
2022-11-04T04:33:08.312Z,76.71508789
2022-11-04T04:34:09.646Z,76.81274414
2022-11-04T04:35:10.150Z,76.81274414
2022-11-04T04:36:41.311Z,76.91650391
2022-11-04T04:37:42.765Z,76.91650391
2022-11-04T04:38:43.337Z,76.81274414
2022-11-04T04:39:43.923Z,76.81274414
2022-11-04T04:40:44.473Z,76.81274414
2022-11-04T04:41:45.909Z,76.91650391
2022-11-04T04:42:46.514Z,76.81274414
2022-11-04T04:43:47.191Z,76.50756836
2022-11-04T04:44:47.753Z,76.40380859
2022-11-04T04:45:48.279Z,76.40380859
2022-11-04T04:46:48.867Z,76.40380859
2022-11-04T04:47:49.452Z,76.50756836
2022-11-04T04:48:49.965Z,76.40380859
2022-11-04T04:49:50.615Z,76.40380859
2022-11-04T04:50:51.184Z,76.50756836
2022-11-04T04:51:52.373Z,76.50756836
2022-11-04T04:52:52.964Z,76.50756836
2022-11-04T04:53:53.509Z,76.61132813
2022-11-04T04:54:54.124Z,76.91650391
2022-11-04T04:55:54.591Z,76.71508789
2022-11-04T04:56:55.173Z,76.71508789
2022-11-04T04:57:55.806Z,76.81274414
2022-11-04T04:58:56.377Z,76.91650391
2022-11-04T04:59:56.999Z,77.12402344
2022-11-04T05:00:57.643Z,77.32543945
2022-11-04T05:01:59.030Z,77.63671875
2022-11-04T05:02:59.474Z,77.83813477
2022-11-04T05:04:00.026Z,78.0456543
2022-11-04T05:05:00.738Z,78.14941406
2022-11-04T05:06:01.311Z,78.38745117
2022-11-04T05:07:01.857Z,78.90014648
2022-11-04T05:08:03.256Z,78.90014648
2022-11-04T05:09:03.860Z,79.00390625
2022-11-04T05:10:04.466Z,78.90014648
2022-11-04T05:11:04.967Z,78.90014648
2022-11-04T05:12:06.392Z,78.79638672
2022-11-04T05:13:07.018Z,78.69873047
2022-11-04T05:14:07.585Z,78.5949707
2022-11-04T05:15:08.193Z,78.5949707
2022-11-04T05:16:08.722Z,78.49121094
2022-11-04T05:17:09.250Z,78.5949707
2022-11-04T05:18:10.190Z,78.79638672
2022-11-04T05:19:40.838Z,78.66210938
2022-11-04T05:20:41.449Z,78.75976563
2022-11-04T05:21:42.057Z,79.00390625
2022-11-04T05:22:43.191Z,79.16870117
2022-11-04T05:23:43.818Z,79.10766602
2022-11-04T05:24:44.403Z,79.00390625
2022-11-04T05:25:45.044Z,79.20532227
2022-11-04T05:26:45.593Z,79.4128418
2022-11-04T05:27:46.177Z,79.62036133
2022-11-04T05:28:46.767Z,79.82177734
2022-11-04T05:29:47.314Z,79.71801758
2022-11-04T05:30:47.898Z,79.71801758
2022-11-04T05:31:48.435Z,79.71801758
2022-11-04T05:32:49.690Z,79.62036133
2022-11-04T05:33:50.534Z,79.62036133
2022-11-04T05:34:51.065Z,79.30908203
2022-11-04T05:35:51.688Z,79.10766602
2022-11-04T05:36:52.165Z,78.49121094
2022-11-04T05:37:53.375Z,78.18603516
2022-11-04T05:38:53.927Z,77.97851563
2022-11-04T05:39:54.458Z,77.67333984
2022-11-04T05:40:55.022Z,77.56958008
2022-11-04T05:41:56.409Z,77.46582031
2022-11-04T05:42:56.971Z,77.67333984
2022-11-04T05:43:57.529Z,77.77099609
2022-11-04T05:44:58.890Z,77.97851563
2022-11-04T05:45:59.478Z,78.49121094
2022-11-04T05:47:00.030Z,78.79638672
2022-11-04T05:48:00.567Z,78.83300781
2022-11-04T05:49:01.119Z,78.93676758
2022-11-04T05:50:01.819Z,79.24194336
2022-11-04T05:51:02.305Z,79.44946289
2022-11-04T05:52:03.366Z,79.65698242
2022-11-04T05:53:03.907Z,79.65698242
2022-11-04T05:54:04.445Z,79.75463867
2022-11-04T05:55:04.996Z,79.85839844
2022-11-04T05:56:05.564Z,80.10253906
2022-11-04T05:57:06.940Z,80.20629883
2022-11-04T05:58:07.890Z,80.61523438
2022-11-04T05:59:08.106Z,80.61523438
2022-11-04T06:00:08.754Z,80.71899414
2022-11-04T06:01:09.830Z,81.02416992
2022-11-04T06:02:41.783Z,81.33544922
2022-11-04T06:03:42.333Z,81.33544922
2022-11-04T06:04:42.889Z,81.26831055
2022-11-04T06:05:43.396Z,81.23168945
2022-11-04T06:06:44.046Z,81.02416992
2022-11-04T06:07:45.395Z,80.92041016
2022-11-04T06:08:45.927Z,80.71899414
2022-11-04T06:09:46.490Z,80.71899414
2022-11-04T06:10:47.091Z,80.51147461
2022-11-04T06:11:47.689Z,80.51147461
2022-11-04T06:12:49.227Z,80.40771484
2022-11-04T06:13:49.888Z,80.51147461
2022-11-04T06:14:50.618Z,80.51147461
2022-11-04T06:15:51.180Z,80.40771484
2022-11-04T06:16:51.799Z,80.10253906
2022-11-04T06:17:52.327Z,80.10253906
2022-11-04T06:18:52.966Z,79.9987793
2022-11-04T06:19:53.600Z,80.20629883
2022-11-04T06:20:54.156Z,80.5480957
2022-11-04T06:21:54.753Z,80.65185547
2022-11-04T06:22:56.855Z,80.34667969
2022-11-04T06:23:57.633Z,80.75561523
2022-11-04T06:24:58.235Z,80.96313477
2022-11-04T06:25:58.806Z,80.75561523
2022-11-04T06:26:59.431Z,81.30493164
2022-11-04T06:27:59.954Z,82.02514648
2022-11-04T06:29:00.507Z,82.12890625
2022-11-04T06:30:01.103Z,82.12890625
2022-11-04T06:31:01.653Z,81.92138672
2022-11-04T06:32:02.265Z,81.92138672
2022-11-04T06:33:03.673Z,82.02514648
2022-11-04T06:34:04.211Z,82.12890625
2022-11-04T06:35:04.738Z,82.12890625
2022-11-04T06:36:05.331Z,82.23266602
2022-11-04T06:37:06.485Z,81.92138672
2022-11-04T06:38:07.341Z,82.23266602
2022-11-04T06:39:07.649Z,81.71386719
2022-11-04T06:40:08.232Z,81.20117188
2022-11-04T06:41:09.338Z,81.26831055
2022-11-04T06:42:41.183Z,81.16455078
2022-11-04T06:43:41.762Z,81.06079102
2022-11-04T06:44:42.379Z,80.859375
2022-11-04T06:45:42.929Z,80.859375
2022-11-04T06:46:43.505Z,80.65185547
2022-11-04T06:47:44.114Z,80.75561523
2022-11-04T06:48:44.725Z,80.61523438
2022-11-04T06:49:45.337Z,80.71899414
2022-11-04T06:50:45.944Z,80.61523438
2022-11-04T06:51:46.491Z,80.51147461
2022-11-04T06:52:47.991Z,80.40771484
2022-11-04T06:53:48.532Z,80.51147461
2022-11-04T06:54:49.175Z,80.40771484
2022-11-04T06:55:49.771Z,80.40771484
2022-11-04T06:56:50.579Z,80.51147461
2022-11-04T06:57:51.197Z,80.61523438
2022-11-04T06:58:51.686Z,80.61523438
2022-11-04T06:59:52.190Z,80.40771484
2022-11-04T07:00:52.879Z,80.31005859
2022-11-04T07:01:53.611Z,80.10253906
2022-11-04T07:02:55.115Z,79.89501953
2022-11-04T07:03:55.730Z,79.79736328
2022-11-04T07:05:57.030Z,79.79736328
2022-11-04T07:06:57.649Z,79.58984375
2022-11-04T07:07:58.904Z,79.48608398
2022-11-04T07:08:59.413Z,79.48608398
2022-11-04T07:10:00.057Z,79.48608398
2022-11-04T07:11:00.573Z,79.69360352
2022-11-04T07:12:01.170Z,79.79736328
2022-11-04T07:13:02.416Z,79.79736328
2022-11-04T07:14:03.146Z,79.79736328
2022-11-04T07:15:04.073Z,79.9987793
2022-11-04T07:16:04.695Z,80.20629883
2022-11-04T07:17:05.508Z,80.20629883
2022-11-04T07:18:06.512Z,80.31005859
2022-11-04T07:19:06.745Z,80.31005859
2022-11-04T07:20:07.483Z,80.31005859
2022-11-04T07:21:10.149Z,80.61523438
2022-11-04T07:22:39.373Z,80.82275391
2022-11-04T07:23:40.736Z,81.23168945
2022-11-04T07:24:41.227Z,81.02416992
2022-11-04T07:25:42.037Z,80.51147461
2022-11-04T07:26:42.734Z,80.51147461
2022-11-04T07:27:43.328Z,80.61523438
2022-11-04T07:28:43.948Z,80.61523438
2022-11-04T07:29:44.477Z,80.61523438
2022-11-04T07:30:45.237Z,80.61523438
2022-11-04T07:31:45.721Z,80.71899414
2022-11-04T07:32:47.424Z,80.61523438
2022-11-04T07:33:47.885Z,80.40771484
2022-11-04T07:34:48.309Z,80.31005859
2022-11-04T07:35:48.944Z,80.10253906
2022-11-04T07:36:49.532Z,80.10253906
2022-11-04T07:37:50.403Z,79.9987793
2022-11-04T07:38:51.677Z,80.10253906
2022-11-04T07:39:52.078Z,80.10253906
2022-11-04T07:40:52.514Z,79.9987793
2022-11-04T07:41:58.284Z,79.9987793
2022-11-04T07:42:53.990Z,79.9987793
2022-11-04T07:43:54.570Z,79.79736328
2022-11-04T07:44:55.664Z,79.48608398
2022-11-04T07:45:56.225Z,79.28466797
2022-11-04T07:46:56.989Z,79.28466797
2022-11-04T07:47:57.655Z,79.07714844
2022-11-04T07:48:58.451Z,79.07714844
2022-11-04T07:49:59.040Z,79.07714844
2022-11-04T07:50:59.518Z,78.66821289
2022-11-04T07:52:00.268Z,78.56445313
2022-11-04T07:53:01.975Z,78.66821289
2022-11-04T07:54:02.743Z,78.66821289
2022-11-04T07:55:03.424Z,78.66821289
2022-11-04T07:56:04.019Z,78.73535156
2022-11-04T07:57:04.687Z,78.73535156
2022-11-04T07:58:05.533Z,78.6315918
2022-11-04T07:59:06.217Z,78.73535156
2022-11-04T08:00:06.833Z,78.93676758
2022-11-04T08:01:07.527Z,79.24194336
2022-11-04T08:02:38.897Z,79.24194336
2022-11-04T08:03:40.384Z,79.24194336
2022-11-04T08:04:41.263Z,79.24194336
2022-11-04T08:05:41.933Z,79.14428711
2022-11-04T08:06:42.489Z,79.30908203
2022-11-04T08:07:43.211Z,79.30908203
2022-11-04T08:08:44.969Z,79.30908203
2022-11-04T08:09:45.716Z,79.51660156
2022-11-04T08:10:46.271Z,79.71801758
2022-11-04T08:11:46.828Z,79.82177734
2022-11-04T08:12:47.356Z,79.82177734
2022-11-04T08:13:48.257Z,79.82177734
2022-11-04T08:14:49.496Z,79.58374023
2022-11-04T08:15:50.282Z,78.75976563
2022-11-04T08:16:50.861Z,78.0456543
2022-11-04T08:17:51.354Z,77.42919922
2022-11-04T08:18:51.960Z,77.32543945
2022-11-04T08:19:52.563Z,77.2277832
2022-11-04T08:20:53.178Z,75.48217773
2022-11-04T08:21:53.693Z,74.45678711
2022-11-04T08:22:54.120Z,74.04785156
2022-11-04T08:23:55.262Z,74.25537109
2022-11-04T08:24:55.949Z,74.35913086
2022-11-04T08:25:56.598Z,74.45678711
2022-11-04T08:26:57.237Z,74.56054688
2022-11-04T08:28:00.847Z,74.56054688
2022-11-04T08:28:58.317Z,74.04785156
2022-11-04T08:29:59.077Z,73.80981445
2022-11-04T08:30:59.753Z,73.70605469
2022-11-04T08:32:00.405Z,73.60839844
2022-11-04T08:33:00.943Z,73.60839844
2022-11-04T08:34:02.219Z,73.60839844
2022-11-04T08:35:03.124Z,73.80981445
2022-11-04T08:36:03.794Z,73.60839844
2022-11-04T08:37:04.570Z,73.19946289
2022-11-04T08:38:05.133Z,72.47924805
2022-11-04T08:39:10.369Z,72.44873047
2022-11-04T08:40:06.438Z,72.3449707
2022-11-04T08:41:07.136Z,72.75390625
2022-11-04T08:42:38.379Z,72.54638672
2022-11-04T08:43:39.589Z,72.75390625
2022-11-04T08:44:40.906Z,72.95532227
2022-11-04T08:45:41.679Z,73.67553711
2022-11-04T08:46:42.518Z,75.92773438
2022-11-04T08:47:43.229Z,77.4597168
2022-11-04T08:48:43.838Z,76.23291016
2022-11-04T08:49:44.363Z,74.56054688
2022-11-04T08:50:45.029Z,73.1262207
2022-11-04T08:51:45.667Z,72.92480469
2022-11-04T08:52:46.350Z,72.30834961
2022-11-04T08:53:47.882Z,72.10693359
2022-11-04T08:54:51.221Z,71.2890625
2022-11-04T08:55:49.189Z,70.15991211
2022-11-04T08:56:50.094Z,70.26367188
2022-11-04T08:57:51.032Z,69.95849609
2022-11-04T08:58:51.637Z,70.06225586
2022-11-04T08:59:52.291Z,70.26367188
2022-11-04T09:00:53.005Z,69.95849609
2022-11-04T09:01:53.662Z,69.85473633
2022-11-04T09:02:54.276Z,69.31152344
2022-11-04T09:03:55.792Z,68.42041016
2022-11-04T09:04:56.348Z,68.21899414
2022-11-04T09:05:56.979Z,68.83544922
2022-11-04T09:06:57.760Z,69.34204102
2022-11-04T09:07:58.573Z,69.140625
2022-11-04T09:09:00.000Z,69.54956055
2022-11-04T09:10:00.578Z,69.95849609
2022-11-04T09:11:01.153Z,69.95849609
2022-11-04T09:12:01.776Z,69.92797852
2022-11-04T09:13:03.311Z,70.12939453
2022-11-04T09:14:04.940Z,70.02563477
2022-11-04T09:15:05.529Z,70.12939453
2022-11-04T09:16:06.257Z,70.74584961
2022-11-04T09:17:06.816Z,70.94726563
2022-11-04T09:18:38.214Z,70.91674805
2022-11-04T09:19:38.792Z,71.0144043
2022-11-04T09:20:39.370Z,70.81298828
2022-11-04T09:21:40.063Z,70.60546875
2022-11-04T09:22:45.605Z,69.99511719
2022-11-04T09:23:42.418Z,69.99511719
2022-11-04T09:24:43.021Z,69.78759766
2022-11-04T09:25:43.662Z,70.09887695
2022-11-04T09:26:44.302Z,70.1965332
2022-11-04T09:27:45.425Z,70.60546875
2022-11-04T09:28:46.210Z,69.99511719
2022-11-04T09:29:47.016Z,70.09887695
2022-11-04T09:30:47.670Z,70.40405273
2022-11-04T09:31:48.355Z,69.78759766
2022-11-04T09:32:52.749Z,69.17724609
2022-11-04T09:33:51.456Z,69.48242188
2022-11-04T09:34:52.166Z,69.99511719
2022-11-04T09:35:52.775Z,70.1965332
2022-11-04T09:36:53.417Z,69.89135742
2022-11-04T09:37:54.759Z,69.58618164
2022-11-04T09:38:55.347Z,69.78759766
2022-11-04T09:39:55.998Z,69.58618164
2022-11-04T09:40:56.605Z,69.86083984
2022-11-04T09:41:57.245Z,69.75708008
2022-11-04T09:42:58.767Z,69.4519043
2022-11-04T09:43:59.931Z,69.34814453
2022-11-04T09:45:20.767Z,69.4519043
2022-11-04T09:46:01.329Z,69.4519043
2022-11-04T09:47:01.985Z,69.75708008
2022-11-04T09:48:02.466Z,69.14672852
2022-11-04T09:49:03.143Z,70.57495117
2022-11-04T09:50:03.789Z,70.16601563
2022-11-04T09:51:05.400Z,70.16601563
2022-11-04T09:52:06.027Z,69.28100586
2022-11-04T09:53:07.457Z,70.30029297
2022-11-04T09:54:44.345Z,70.81298828
2022-11-04T09:55:40.281Z,71.2890625
2022-11-04T09:56:41.022Z,71.39282227
2022-11-04T09:57:41.721Z,70.57495117
2022-11-04T09:58:42.353Z,70.26977539
2022-11-04T09:59:43.070Z,70.67871094
2022-11-04T16:34:59.287Z,81.07299805
2022-11-04T16:35:59.907Z,81.17675781
2022-11-04T16:37:00.392Z,81.17675781
2022-11-04T16:38:01.508Z,80.76782227
2022-11-04T16:39:32.518Z,81.17675781
2022-11-04T16:40:33.114Z,81.48193359
2022-11-04T16:41:33.826Z,81.58569336
2022-11-04T16:42:34.308Z,81.89697266
2022-11-04T16:43:34.883Z,81.89697266
2022-11-04T16:44:35.516Z,82.09838867
2022-11-04T16:45:36.074Z,81.17675781
2022-11-04T16:46:37.436Z,81.48193359
2022-11-04T16:47:37.959Z,81.48193359
2022-11-04T16:48:38.569Z,81.28051758
2022-11-04T16:49:39.260Z,81.28051758
2022-11-04T16:50:39.844Z,81.38427734
2022-11-04T16:51:40.710Z,80.93261719
2022-11-04T16:52:44.136Z,80.76782227
2022-11-04T16:53:41.708Z,80.93261719
2022-11-04T16:54:42.270Z,81.03637695
2022-11-04T16:55:43.527Z,80.82885742
2022-11-04T16:56:47.937Z,80.72509766
2022-11-04T16:57:48.482Z,80.52368164
2022-11-04T16:58:49.197Z,80.52368164
2022-11-04T16:59:49.790Z,80.62744141
2022-11-04T17:00:50.779Z,80.62744141
2022-11-04T17:01:51.602Z,80.41992188
2022-11-04T17:02:51.953Z,80.31616211
2022-11-04T17:03:52.489Z,80.21240234
2022-11-04T17:04:53.220Z,80.41992188
2022-11-04T17:05:55.061Z,80.52368164
2022-11-04T17:06:55.711Z,80.38330078
2022-11-04T17:08:03.338Z,80.10864258
2022-11-04T17:08:57.800Z,80.21240234
2022-11-04T17:09:58.326Z,80.31616211
2022-11-04T17:10:58.881Z,80.31616211
2022-11-04T17:11:59.368Z,80.52368164
2022-11-04T17:13:00.472Z,80.31616211
2022-11-04T17:14:01.475Z,80.62744141
2022-11-04T17:15:32.684Z,80.52368164
2022-11-04T17:16:33.895Z,80.93261719
2022-11-04T17:17:35.220Z,80.93261719
2022-11-04T17:18:35.788Z,81.03637695
2022-11-04T17:19:36.243Z,80.96923828
2022-11-04T17:20:36.816Z,80.96923828
2022-11-04T17:21:37.382Z,81.38427734
2022-11-04T17:22:37.924Z,81.38427734
2022-11-04T17:23:38.576Z,81.58569336
2022-11-04T17:24:39.067Z,81.58569336
2022-11-04T17:25:39.515Z,81.79321289
2022-11-04T17:26:40.100Z,81.89697266
2022-11-04T17:27:41.177Z,81.79321289
2022-11-04T17:28:41.786Z,81.7565918
2022-11-04T17:29:42.216Z,81.54907227
2022-11-04T17:30:42.726Z,81.34155273
2022-11-04T17:31:43.314Z,81.24389648
2022-11-04T17:32:44.015Z,80.93261719
2022-11-04T17:33:45.428Z,81.03637695
2022-11-04T17:34:45.959Z,81.24389648
2022-11-04T17:35:46.408Z,81.54907227
2022-11-04T17:36:47.044Z,81.54907227
2022-11-04T17:37:48.315Z,81.7565918
2022-11-04T17:38:48.830Z,81.7565918
2022-11-04T17:39:49.345Z,81.65283203
2022-11-04T17:40:49.887Z,81.65283203
2022-11-04T17:41:50.578Z,81.7565918